Coggeshall, United Kingdom
Current Conditions -  °F | °C
As of 7:20 AM on Saturday 29 Nov 2014 (Local Time) from EGSS Reporting Station
Clear Clear  
Wind Chill: 44°   Ceiling: Unl
Heat Index: 48°   Visibility: 4mi
Dew Point: 48°   Wind: 9mph
Humidity: 100%   Direction: 110°ESE
Pressure: 29.83"   Gusts: NA
Location:  51.87°N, 0.69°E
Report Text: EGSS 290720Z 11008KT 030V130 6000 NSC 09/09 Q1010
Loading
Personal Weather Stations






























Interactive Weather Map New forecast layout! Learn more

10-Day Weather Forecast

Advertisements
Track Severe Weather on mobile